Time;durP1;ratioP1;P1;durP2;ratioP2;P2;SDS_P1;SDS_P2;PMS_P1;PMS_P2;Temp;Humidity;BMP_temperature;BMP_pressure;BME280_temperature;BME280_humidity;BME280_pressure;Samples;Min_cycle;Max_cycle;Signal;HPM_P1;HPM_P2
2022/09/23 00:00:13;;;;;;;1.52;0.80;;;21.90;53.10;;;;;;5050514;28;20021;-65
2022/09/23 00:02:39;;;;;;;1.42;0.85;;;21.90;53.10;;;;;;5051526;28;20025;-66
2022/09/23 00:05:05;;;;;;;1.40;0.80;;;21.90;53.10;;;;;;5050892;28;20021;-65
2022/09/23 00:07:31;;;;;;;1.25;0.70;;;21.90;53.10;;;;;;5050888;28;20027;-65
2022/09/23 00:09:57;;;;;;;1.40;0.80;;;21.80;53.10;;;;;;5050783;28;20411;-65
2022/09/23 00:12:23;;;;;;;1.42;0.80;;;21.80;53.10;;;;;;5050771;28;20021;-65
2022/09/23 00:14:48;;;;;;;1.15;0.80;;;21.80;53.10;;;;;;5050654;28;20104;-66
2022/09/23 00:17:14;;;;;;;1.33;0.80;;;21.80;53.10;;;;;;5050552;28;20028;-65
2022/09/23 00:19:40;;;;;;;1.30;0.90;;;21.80;53.10;;;;;;5050562;28;20329;-65
2022/09/23 00:22:06;;;;;;;1.50;0.90;;;21.80;53.10;;;;;;5050606;28;20116;-65
2022/09/23 00:24:32;;;;;;;1.35;0.80;;;21.80;53.20;;;;;;5050259;28;20028;-66
2022/09/23 00:26:59;;;;;;;1.55;0.82;;;21.80;53.20;;;;;;5050557;28;20025;-65
2022/09/23 00:29:24;;;;;;;1.45;0.90;;;21.70;53.10;;;;;;5050486;28;20029;-65
2022/09/23 00:31:50;;;;;;;1.20;0.73;;;21.80;53.20;;;;;;5049774;28;20396;-66
2022/09/23 00:34:16;;;;;;;1.13;0.80;;;21.70;53.10;;;;;;5050512;28;20033;-66
2022/09/23 00:36:42;;;;;;;1.17;0.60;;;21.80;53.20;;;;;;5050269;28;20068;-66
2022/09/23 00:39:08;;;;;;;1.70;0.90;;;21.70;53.10;;;;;;5050373;28;20028;-65
2022/09/23 00:41:35;;;;;;;1.50;0.70;;;21.70;53.60;;;;;;5051202;28;20056;-65
2022/09/23 00:44:22;;;;;;;0.93;0.73;;;21.70;53.10;;;;;;5054172;28;20036;-65
2022/09/23 00:46:47;;;;;;;0.95;0.80;;;21.70;53.10;;;;;;5054240;28;20033;-67
2022/09/23 00:49:26;;;;;;;1.13;0.70;;;21.70;53.10;;;;;;5054439;28;20032;-65
2022/09/23 00:51:57;;;;;;;0.90;0.70;;;21.70;53.10;;;;;;5053034;28;20028;-66
2022/09/23 00:54:26;;;;;;;1.75;0.90;;;21.70;53.10;;;;;;5052988;28;20037;-67
2022/09/23 00:56:54;;;;;;;0.88;0.70;;;21.70;53.10;;;;;;5054137;28;20029;-66
2022/09/23 00:59:23;;;;;;;1.17;0.80;;;21.60;53.10;;;;;;5054140;28;20033;-65
2022/09/23 01:01:53;;;;;;;2.55;0.80;;;21.70;53.10;;;;;;5052211;28;20036;-65
2022/09/23 01:04:20;;;;;;;1.20;0.70;;;21.60;53.10;;;;;;5054117;28;20013;-66
2022/09/23 01:06:46;;;;;;;1.15;0.75;;;21.60;53.10;;;;;;5053583;28;20032;-65
2022/09/23 01:09:12;;;;;;;1.45;0.80;;;21.60;53.10;;;;;;5053899;28;20380;-65
2022/09/23 01:12:03;;;;;;;1.30;0.82;;;21.60;53.20;;;;;;5053946;28;20047;-67
2022/09/23 01:14:35;;;;;;;0.70;0.60;;;21.60;53.20;;;;;;5052777;28;20037;-68
2022/09/23 01:17:32;;;;;;;1.08;0.85;;;21.60;53.20;;;;;;5053507;28;20045;-65
2022/09/23 01:20:16;;;;;;;2.00;0.85;;;21.60;53.20;;;;;;5053294;28;20021;-65
2022/09/23 01:22:42;;;;;;;1.13;0.80;;;21.60;53.20;;;;;;5053610;28;20052;-66
2022/09/23 01:25:35;;;;;;;0.93;0.70;;;21.60;53.20;;;;;;5053722;28;20060;-65
2022/09/23 01:28:09;;;;;;;1.80;0.80;;;21.60;53.20;;;;;;5053097;28;20075;-65
2022/09/23 01:30:41;;;;;;;1.45;0.70;;;21.60;53.20;;;;;;5052748;28;20746;-64
2022/09/23 01:33:50;;;;;;;1.65;0.95;;;21.50;53.20;;;;;;5052412;28;20060;-65
2022/09/23 01:36:24;;;;;;;1.05;0.70;;;21.50;53.20;;;;;;5042116;28;20094;-66
2022/09/23 01:39:28;;;;;;;1.65;0.80;;;21.50;53.20;;;;;;5053485;28;20032;-65
2022/09/23 01:41:59;;;;;;;0.73;0.60;;;21.50;53.20;;;;;;5053356;28;20389;-65
2022/09/23 01:44:39;;;;;;;0.68;0.63;;;21.50;53.20;;;;;;5053351;28;20032;-66
2022/09/23 01:47:21;;;;;;;0.90;0.63;;;21.50;53.30;;;;;;5053057;28;20033;-65
2022/09/23 01:49:51;;;;;;;0.88;0.70;;;21.50;53.30;;;;;;5050645;28;20040;-65
2022/09/23 01:52:37;;;;;;;1.33;0.80;;;21.50;53.30;;;;;;5052766;28;20033;-65
2022/09/23 01:55:17;;;;;;;0.70;0.60;;;21.40;53.20;;;;;;5051558;28;20028;-65
2022/09/23 01:57:53;;;;;;;1.17;0.70;;;21.40;53.20;;;;;;5052082;28;20120;-66
2022/09/23 02:00:21;;;;;;;1.00;0.77;;;21.40;53.30;;;;;;5052084;28;20384;-65
2022/09/23 02:02:50;;;;;;;1.05;0.70;;;21.40;53.30;;;;;;5052037;28;20021;-67
2022/09/23 02:05:46;;;;;;;1.42;0.80;;;21.40;53.30;;;;;;5053100;28;20111;-64
2022/09/23 02:08:28;;;;;;;0.93;0.77;;;21.40;53.30;;;;;;5052537;28;20361;-66
2022/09/23 02:11:06;;;;;;;1.70;0.80;;;21.40;53.30;;;;;;5052221;28;20036;-65
2022/09/23 02:13:38;;;;;;;1.17;0.70;;;21.40;53.30;;;;;;5050036;28;20049;-66
2022/09/23 02:16:11;;;;;;;1.38;0.80;;;21.40;53.30;;;;;;5052661;28;20167;-65
2022/09/23 02:18:46;;;;;;;0.98;0.75;;;21.30;53.30;;;;;;5052767;28;20299;-65
2022/09/23 02:21:14;;;;;;;1.30;0.70;;;21.40;53.40;;;;;;5051425;28;20035;-66
2022/09/23 02:23:49;;;;;;;1.70;0.73;;;21.30;53.30;;;;;;5052533;28;20074;-65
2022/09/23 02:26:14;;;;;;;1.40;0.80;;;21.30;53.40;;;;;;5051989;28;20144;-67
2022/09/23 02:29:09;;;;;;;0.85;0.60;;;21.30;53.40;;;;;;5052527;28;20096;-67
2022/09/23 02:31:44;;;;;;;0.98;0.70;;;21.30;53.40;;;;;;5051935;28;20528;-65
2022/09/23 02:34:37;;;;;;;0.95;0.70;;;21.30;53.40;;;;;;5052529;28;20476;-66
2022/09/23 02:37:42;;;;;;;1.20;0.80;;;21.30;53.40;;;;;;5052328;28;20556;-65
2022/09/23 02:40:21;;;;;;;0.93;0.70;;;21.30;53.30;;;;;;5052281;28;20048;-65
2022/09/23 02:43:07;;;;;;;1.20;0.80;;;21.30;53.40;;;;;;5052060;28;20464;-64
2022/09/23 02:45:36;;;;;;;1.23;0.70;;;21.20;53.30;;;;;;5052143;28;20051;-65
2022/09/23 02:48:11;;;;;;;0.75;0.70;;;21.20;53.30;;;;;;5052224;28;20526;-65
2022/09/23 02:50:37;;;;;;;0.90;0.60;;;21.30;53.40;;;;;;5052093;28;20032;-64
2022/09/23 02:53:03;;;;;;;0.75;0.65;;;21.20;53.30;;;;;;5052098;28;20078;-65
2022/09/23 02:55:31;;;;;;;1.38;0.70;;;21.20;53.30;;;;;;5051943;28;20025;-65
2022/09/23 02:58:01;;;;;;;0.82;0.70;;;21.20;53.30;;;;;;5052018;28;20029;-65
2022/09/23 03:00:46;;;;;;;0.65;0.60;;;21.20;53.30;;;;;;5051506;28;20021;-65
2022/09/23 03:03:30;;;;;;;0.85;0.60;;;21.20;53.40;;;;;;5051040;28;20094;-65
2022/09/23 03:06:00;;;;;;;1.38;0.80;;;21.20;53.40;;;;;;5050471;28;20043;-65
2022/09/23 03:08:41;;;;;;;1.15;0.70;;;21.10;53.40;;;;;;5051640;28;20485;-65
2022/09/23 03:11:10;;;;;;;1.20;0.70;;;21.10;53.40;;;;;;5051271;28;20021;-65
2022/09/23 03:13:45;;;;;;;0.85;0.65;;;21.10;53.40;;;;;;5051274;28;20021;-65
2022/09/23 03:16:23;;;;;;;1.15;0.75;;;21.10;53.40;;;;;;5051526;28;20053;-67
2022/09/23 03:18:54;;;;;;;1.02;0.75;;;21.10;53.40;;;;;;5050736;28;20587;-64
2022/09/23 03:21:37;;;;;;;0.80;0.60;;;21.10;53.40;;;;;;5050967;28;20075;-66
2022/09/23 03:24:06;;;;;;;1.00;0.70;;;21.10;53.40;;;;;;5050543;28;20476;-65
2022/09/23 03:26:38;;;;;;;0.80;0.70;;;21.10;53.40;;;;;;5051271;28;20516;-65
2022/09/23 03:29:10;;;;;;;1.17;0.70;;;21.10;53.40;;;;;;5050392;28;20033;-65
2022/09/23 03:31:38;;;;;;;0.77;0.60;;;21.10;53.40;;;;;;5050931;28;20124;-64
2022/09/23 03:34:28;;;;;;;0.70;0.50;;;21.10;53.50;;;;;;5051768;28;20040;-67
2022/09/23 03:37:22;;;;;;;1.10;0.80;;;21.10;53.50;;;;;;5049797;28;20299;-65
2022/09/23 03:39:52;;;;;;;0.95;0.70;;;21.10;53.50;;;;;;5046537;28;20115;-65
2022/09/23 03:42:23;;;;;;;0.57;0.57;;;21.10;53.40;;;;;;5051044;28;20087;-65
2022/09/23 03:44:53;;;;;;;1.45;0.80;;;21.10;53.40;;;;;;5051193;28;20036;-66
2022/09/23 03:47:19;;;;;;;0.88;0.70;;;21.10;53.50;;;;;;5051218;28;20427;-65
2022/09/23 03:49:47;;;;;;;1.25;0.70;;;21.00;53.40;;;;;;5033274;28;20067;-65
2022/09/23 03:52:17;;;;;;;1.10;0.70;;;21.00;53.40;;;;;;5050457;28;20037;-65
2022/09/23 03:54:43;;;;;;;1.20;0.73;;;21.00;53.50;;;;;;5051372;28;20538;-66
2022/09/23 03:57:10;;;;;;;1.10;0.70;;;21.00;53.50;;;;;;5050866;28;20025;-65
2022/09/23 03:59:36;;;;;;;0.77;0.70;;;21.00;53.50;;;;;;5049727;28;20527;-64
2022/09/23 04:02:03;;;;;;;1.00;0.70;;;21.00;53.50;;;;;;5050552;28;20029;-65
2022/09/23 04:04:32;;;;;;;0.80;0.60;;;21.00;53.50;;;;;;5050921;28;20024;-65
2022/09/23 04:06:58;;;;;;;1.10;0.70;;;21.00;53.50;;;;;;5050825;28;20131;-67
2022/09/23 04:09:24;;;;;;;0.85;0.65;;;21.00;53.50;;;;;;5051001;28;20445;-66
2022/09/23 04:11:51;;;;;;;0.80;0.60;;;21.00;53.50;;;;;;5050878;28;20465;-64
2022/09/23 04:14:18;;;;;;;0.55;0.55;;;20.90;53.50;;;;;;5032928;28;20033;-65
2022/09/23 04:16:44;;;;;;;0.95;0.68;;;20.90;53.60;;;;;;5050282;28;20045;-64
2022/09/23 04:19:10;;;;;;;1.20;0.70;;;20.90;53.70;;;;;;5049953;28;20377;-65
2022/09/23 04:21:36;;;;;;;0.80;0.70;;;20.90;53.70;;;;;;5050616;28;20028;-64
2022/09/23 04:24:02;;;;;;;1.05;0.95;;;20.90;53.70;;;;;;5050740;28;20033;-65
2022/09/23 04:26:29;;;;;;;1.00;0.70;;;20.90;53.70;;;;;;5050647;28;20476;-64
2022/09/23 04:28:55;;;;;;;1.58;0.90;;;20.90;53.70;;;;;;5050085;28;20072;-65
2022/09/23 04:31:22;;;;;;;0.95;0.60;;;20.90;53.70;;;;;;5050098;28;20504;-64
2022/09/23 04:33:48;;;;;;;0.93;0.70;;;20.90;53.70;;;;;;5050591;28;20075;-65
2022/09/23 04:36:14;;;;;;;0.60;0.50;;;20.90;53.70;;;;;;5050548;28;20033;-65
2022/09/23 04:38:43;;;;;;;1.00;0.70;;;20.90;53.70;;;;;;5050518;28;20505;-65
2022/09/23 04:41:09;;;;;;;1.17;0.70;;;20.80;53.60;;;;;;5049825;28;20025;-64
2022/09/23 04:43:35;;;;;;;0.68;0.68;;;20.80;53.70;;;;;;5050546;28;20449;-64
2022/09/23 04:46:05;;;;;;;0.80;0.70;;;20.90;53.70;;;;;;5050419;28;20033;-64
2022/09/23 04:48:31;;;;;;;0.80;0.70;;;20.80;53.70;;;;;;5048967;28;20037;-64
2022/09/23 04:51:03;;;;;;;0.70;0.60;;;20.80;53.70;;;;;;5050434;28;20377;-64
2022/09/23 04:53:30;;;;;;;0.98;0.60;;;20.80;53.80;;;;;;5049754;28;20036;-65
2022/09/23 04:56:19;;;;;;;1.27;0.80;;;20.80;53.70;;;;;;5050001;28;20029;-64
2022/09/23 04:58:45;;;;;;;0.88;0.60;;;20.80;53.70;;;;;;5049946;28;20489;-64
2022/09/23 05:01:14;;;;;;;1.05;0.60;;;20.80;53.70;;;;;;5049528;28;20040;-65
2022/09/23 05:03:41;;;;;;;1.03;0.77;;;20.80;53.70;;;;;;5050425;28;20044;-65
2022/09/23 05:06:08;;;;;;;0.75;0.70;;;20.80;53.80;;;;;;5050332;28;20032;-65
2022/09/23 05:08:34;;;;;;;0.60;0.60;;;20.80;53.80;;;;;;5050193;28;20040;-65
2022/09/23 05:11:05;;;;;;;0.63;0.50;;;20.70;53.80;;;;;;5050153;28;20029;-65
2022/09/23 05:13:32;;;;;;;0.63;0.60;;;20.80;53.80;;;;;;5049646;28;20139;-64
2022/09/23 05:15:59;;;;;;;1.10;0.77;;;20.80;54.20;;;;;;5049964;28;20052;-65
2022/09/23 05:18:26;;;;;;;0.70;0.70;;;20.80;54.10;;;;;;5050641;28;20029;-65
2022/09/23 05:20:55;;;;;;;0.95;0.80;;;20.90;54.00;;;;;;5039214;28;20116;-64
2022/09/23 05:23:22;;;;;;;1.02;0.70;;;21.00;53.90;;;;;;5050170;28;20528;-65
2022/09/23 05:25:48;;;;;;;1.10;0.75;;;21.10;53.90;;;;;;5050273;28;20035;-65
2022/09/23 05:28:18;;;;;;;1.00;0.80;;;21.20;53.60;;;;;;5051594;28;20468;-65
2022/09/23 05:30:44;;;;;;;1.20;0.80;;;21.30;53.40;;;;;;5052433;28;20025;-65
2022/09/23 05:33:10;;;;;;;2.08;0.98;;;21.40;53.30;;;;;;5053719;28;20032;-65
2022/09/23 05:35:36;;;;;;;1.60;0.93;;;21.40;53.00;;;;;;5053515;28;20086;-64
2022/09/23 05:38:02;;;;;;;1.20;0.70;;;21.50;52.90;;;;;;5053661;28;20029;-65
2022/09/23 05:40:27;;;;;;;0.60;0.60;;;21.60;52.80;;;;;;5052484;28;20394;-65
2022/09/23 05:42:53;;;;;;;1.15;0.80;;;21.60;52.70;;;;;;5053458;28;20031;-65
2022/09/23 05:45:18;;;;;;;0.73;0.70;;;21.70;52.60;;;;;;5053434;28;20044;-64
2022/09/23 05:47:44;;;;;;;0.98;0.70;;;21.80;52.50;;;;;;5053462;28;20376;-65
2022/09/23 05:50:09;;;;;;;1.30;0.90;;;21.80;52.40;;;;;;5053293;28;20094;-64
2022/09/23 05:52:35;;;;;;;1.30;0.88;;;21.90;52.30;;;;;;5053360;28;20029;-64
2022/09/23 05:55:01;;;;;;;1.00;0.82;;;22.00;52.10;;;;;;5053194;28;20063;-65
2022/09/23 05:57:27;;;;;;;1.17;0.70;;;22.10;52.00;;;;;;5053069;28;20090;-64
2022/09/23 05:59:52;;;;;;;0.73;0.60;;;22.20;51.80;;;;;;5053160;28;20062;-64
2022/09/23 06:02:18;;;;;;;1.25;0.80;;;22.30;51.70;;;;;;5052678;28;20025;-64
2022/09/23 06:04:44;;;;;;;1.25;0.80;;;22.30;51.50;;;;;;5053072;28;20150;-64
2022/09/23 06:07:09;;;;;;;1.52;1.00;;;22.40;51.30;;;;;;5053034;28;20025;-64
2022/09/23 06:09:35;;;;;;;1.00;0.80;;;22.50;51.00;;;;;;5052239;28;20025;-64
2022/09/23 06:12:01;;;;;;;1.73;0.90;;;22.60;50.80;;;;;;5052957;28;20032;-64
2022/09/23 06:14:27;;;;;;;1.25;0.90;;;22.70;50.70;;;;;;5052792;28;20037;-64
2022/09/23 06:16:53;;;;;;;1.20;0.77;;;22.70;50.60;;;;;;5052661;28;20041;-65
2022/09/23 06:19:18;;;;;;;0.77;0.65;;;22.80;50.60;;;;;;5052893;28;20032;-64
2022/09/23 06:21:44;;;;;;;1.20;0.80;;;22.90;50.30;;;;;;5052706;28;20099;-65
2022/09/23 06:24:10;;;;;;;1.20;0.80;;;23.10;50.10;;;;;;5052616;28;20025;-65
2022/09/23 06:26:37;;;;;;;1.33;0.90;;;23.20;49.90;;;;;;5052608;28;20040;-64
2022/09/23 06:29:08;;;;;;;0.85;0.75;;;23.20;49.70;;;;;;5052682;28;20025;-65
2022/09/23 06:31:34;;;;;;;2.03;1.00;;;23.20;49.80;;;;;;5051956;28;20155;-64
2022/09/23 06:34:00;;;;;;;1.95;0.90;;;23.30;49.70;;;;;;5052534;28;20101;-64
2022/09/23 06:36:26;;;;;;;1.35;0.90;;;23.40;49.60;;;;;;5052321;28;20024;-64
2022/09/23 06:38:51;;;;;;;1.30;0.90;;;23.50;49.40;;;;;;5052368;28;20384;-64
2022/09/23 06:41:19;;;;;;;1.17;0.90;;;23.60;49.10;;;;;;5052313;28;20104;-65
2022/09/23 06:43:45;;;;;;;0.93;0.70;;;23.60;49.20;;;;;;5052316;28;20047;-65
2022/09/23 06:46:17;;;;;;;1.30;0.90;;;23.70;49.20;;;;;;5052197;28;20036;-64
2022/09/23 06:48:43;;;;;;;1.38;0.90;;;23.80;49.10;;;;;;5052250;28;20465;-65
2022/09/23 06:51:11;;;;;;;1.23;0.80;;;23.90;49.00;;;;;;5052100;28;20029;-65
2022/09/23 06:53:38;;;;;;;1.48;0.80;;;24.00;48.80;;;;;;5052108;28;20113;-65
2022/09/23 06:56:06;;;;;;;0.95;0.80;;;24.10;48.60;;;;;;5052010;28;20025;-65
2022/09/23 06:58:34;;;;;;;2.30;0.85;;;24.10;48.50;;;;;;5052022;28;20480;-65
2022/09/23 07:01:06;;;;;;;1.70;0.80;;;24.10;48.60;;;;;;5051489;28;20067;-64
2022/09/23 07:03:32;;;;;;;1.10;0.80;;;24.10;48.60;;;;;;5051815;28;20542;-65
2022/09/23 07:05:58;;;;;;;1.48;0.85;;;24.10;48.60;;;;;;5052049;28;20029;-64
2022/09/23 07:08:26;;;;;;;1.02;0.80;;;24.00;48.50;;;;;;5050597;28;20036;-64
2022/09/23 07:10:53;;;;;;;2.95;1.02;;;24.00;48.50;;;;;;5051786;28;20033;-65
2022/09/23 07:13:18;;;;;;;1.50;0.85;;;23.90;48.50;;;;;;5051751;28;20036;-65
2022/09/23 07:15:51;;;;;;;1.60;0.75;;;23.90;48.50;;;;;;5051563;28;20057;-65
2022/09/23 07:18:22;;;;;;;1.25;0.80;;;23.90;48.50;;;;;;5051209;28;20057;-65
2022/09/23 07:20:48;;;;;;;1.02;0.80;;;23.90;48.60;;;;;;5051553;28;20583;-65
2022/09/23 07:23:16;;;;;;;1.17;0.80;;;23.90;48.70;;;;;;5051675;28;20122;-65
2022/09/23 07:25:43;;;;;;;0.73;0.60;;;23.90;49.00;;;;;;5051503;28;20365;-65
2022/09/23 07:28:09;;;;;;;1.77;1.10;;;23.80;49.20;;;;;;5051410;28;20975;-65
2022/09/23 07:30:39;;;;;;;1.60;0.77;;;23.90;49.20;;;;;;5050950;28;20113;-65
2022/09/23 07:33:05;;;;;;;1.08;0.73;;;23.80;49.00;;;;;;5051395;28;20052;-65
2022/09/23 07:35:31;;;;;;;1.50;0.80;;;23.80;49.10;;;;;;5051325;28;20102;-65
2022/09/23 07:37:57;;;;;;;1.15;0.80;;;23.80;49.00;;;;;;5050872;28;20042;-65
2022/09/23 07:40:22;;;;;;;1.73;0.80;;;23.80;49.10;;;;;;5051352;28;20025;-65
2022/09/23 07:42:48;;;;;;;1.20;0.80;;;23.80;49.10;;;;;;5051211;28;20020;-65
2022/09/23 07:45:14;;;;;;;1.00;0.80;;;23.80;49.10;;;;;;5051286;28;20087;-65
2022/09/23 07:47:39;;;;;;;1.25;0.77;;;23.80;49.20;;;;;;5051041;28;20047;-65
2022/09/23 07:50:10;;;;;;;2.60;0.80;;;23.70;49.20;;;;;;5050931;28;20044;-65
2022/09/23 07:52:36;;;;;;;1.95;0.90;;;23.70;49.40;;;;;;5050319;28;20396;-65
2022/09/23 07:55:05;;;;;;;1.40;0.80;;;23.70;49.40;;;;;;5041679;28;20033;-65
2022/09/23 07:57:31;;;;;;;1.35;0.80;;;23.70;49.40;;;;;;5033049;28;20029;-65
2022/09/23 07:59:57;;;;;;;2.13;0.80;;;23.70;49.40;;;;;;5050961;28;20404;-66
2022/09/23 08:02:23;;;;;;;1.38;0.80;;;23.70;49.40;;;;;;5050569;28;20059;-64
2022/09/23 08:04:49;;;;;;;1.52;0.70;;;23.70;49.40;;;;;;5050918;28;20520;-65
2022/09/23 08:07:15;;;;;;;1.08;0.77;;;23.70;49.50;;;;;;5050915;28;20103;-65
2022/09/23 08:09:42;;;;;;;1.65;0.77;;;23.70;49.70;;;;;;5050856;28;20108;-65
2022/09/23 08:12:14;;;;;;;1.38;0.70;;;23.70;50.20;;;;;;5050854;28;20021;-65
2022/09/23 08:14:40;;;;;;;1.10;0.80;;;23.60;49.80;;;;;;5049929;28;20029;-65
2022/09/23 08:17:06;;;;;;;1.33;0.93;;;23.60;49.80;;;;;;5050565;28;20037;-66
2022/09/23 08:19:32;;;;;;;1.05;0.65;;;23.60;49.80;;;;;;5050772;28;20021;-65
2022/09/23 08:21:57;;;;;;;1.30;0.85;;;23.60;49.80;;;;;;5050719;28;20032;-65
2022/09/23 08:24:23;;;;;;;1.35;0.80;;;23.60;49.70;;;;;;5050699;28;20028;-64
2022/09/23 08:26:52;;;;;;;1.35;0.80;;;23.60;49.70;;;;;;5050656;28;20104;-65
2022/09/23 08:29:19;;;;;;;1.30;0.85;;;23.60;49.70;;;;;;5050733;28;20024;-65
2022/09/23 08:31:45;;;;;;;2.03;1.20;;;23.60;49.70;;;;;;5050137;28;20029;-65
2022/09/23 08:34:12;;;;;;;1.13;0.80;;;23.50;49.70;;;;;;5050537;28;20035;-65
2022/09/23 08:36:37;;;;;;;1.38;0.90;;;23.60;49.80;;;;;;5040442;28;20040;-64
2022/09/23 08:39:05;;;;;;;2.45;1.02;;;23.60;49.80;;;;;;5050676;28;20108;-65
2022/09/23 08:42:13;;;;;;;1.27;0.80;;;23.60;49.90;;;;;;5050412;28;20083;-65
2022/09/23 08:44:44;;;;;;;1.40;0.90;;;23.50;49.80;;;;;;5050390;28;20033;-64
2022/09/23 08:47:22;;;;;;;1.20;0.80;;;23.50;49.90;;;;;;5050453;28;20029;-64
2022/09/23 08:50:10;;;;;;;5.20;1.30;;;23.50;49.90;;;;;;5050331;28;20481;-64
2022/09/23 08:52:43;;;;;;;1.00;0.90;;;23.50;49.90;;;;;;5050427;28;20035;-64
2022/09/23 08:55:12;;;;;;;1.05;0.80;;;23.50;50.00;;;;;;5050194;28;20032;-65
2022/09/23 08:57:41;;;;;;;1.42;0.80;;;23.50;50.00;;;;;;5050369;28;20469;-65
2022/09/23 09:00:26;;;;;;;0.75;0.70;;;23.50;50.00;;;;;;5050441;28;20098;-64
2022/09/23 09:02:53;;;;;;;1.00;0.80;;;23.50;50.10;;;;;;5049807;28;20040;-65
2022/09/23 09:05:26;;;;;;;0.93;0.70;;;23.50;50.20;;;;;;5054139;28;20083;-64
2022/09/23 09:07:56;;;;;;;1.08;0.80;;;23.50;50.10;;;;;;5053866;28;20024;-64
2022/09/23 09:10:25;;;;;;;1.00;0.80;;;23.50;50.20;;;;;;5052762;28;20395;-65
2022/09/23 09:13:06;;;;;;;1.45;0.90;;;23.50;50.20;;;;;;5052723;28;20122;-64
2022/09/23 09:15:47;;;;;;;1.20;0.70;;;23.50;50.20;;;;;;5053797;28;20070;-64
2022/09/23 09:18:23;;;;;;;1.08;0.82;;;23.50;50.30;;;;;;5052260;28;20456;-66
2022/09/23 09:21:10;;;;;;;1.27;0.80;;;23.50;50.30;;;;;;5053779;28;20028;-65
2022/09/23 09:24:08;;;;;;;0.82;0.70;;;23.50;50.30;;;;;;5053153;28;20032;-65
2022/09/23 09:26:34;;;;;;;0.90;0.77;;;23.50;50.40;;;;;;5031177;28;20045;-65
2022/09/23 09:29:03;;;;;;;1.20;0.80;;;23.50;50.40;;;;;;5053696;28;20369;-65
2022/09/23 09:31:36;;;;;;;0.80;0.75;;;23.50;50.40;;;;;;5053077;28;20033;-65
2022/09/23 09:34:19;;;;;;;1.08;0.80;;;23.50;50.40;;;;;;5052761;28;20029;-65
2022/09/23 09:37:00;;;;;;;0.82;0.70;;;23.50;50.40;;;;;;5052744;28;20388;-65
2022/09/23 09:39:26;;;;;;;0.90;0.70;;;23.50;50.40;;;;;;5053332;28;20079;-65
2022/09/23 09:41:54;;;;;;;0.98;0.80;;;23.50;50.40;;;;;;5052945;28;20067;-65
2022/09/23 09:44:23;;;;;;;2.03;1.05;;;23.50;50.50;;;;;;5053187;28;20021;-65
2022/09/23 09:46:48;;;;;;;1.00;0.73;;;23.50;50.50;;;;;;5053072;28;20048;-65
2022/09/23 09:49:57;;;;;;;1.42;0.80;;;23.50;50.50;;;;;;5053260;28;20029;-64
2022/09/23 09:52:28;;;;;;;;;;;23.50;50.60;;;;;;5053532;28;20021;-65
2022/09/23 09:55:14;;;;;;;2.22;0.90;;;23.50;50.60;;;;;;5053264;28;20218;-65
2022/09/23 09:58:04;;;;;;;1.15;0.70;;;23.50;50.60;;;;;;5051258;28;20041;-64
2022/09/23 10:00:30;;;;;;;0.70;0.70;;;23.50;50.60;;;;;;5052718;28;20033;-65
2022/09/23 10:03:00;;;;;;;1.30;0.80;;;23.50;50.60;;;;;;5052943;28;20067;-65
2022/09/23 10:05:45;;;;;;;1.50;0.88;;;23.50;50.60;;;;;;5052879;28;20428;-65
2022/09/23 10:08:17;;;;;;;1.15;0.85;;;23.50;50.60;;;;;;5051735;28;20068;-65
2022/09/23 10:10:59;;;;;;;1.13;0.80;;;23.50;50.60;;;;;;5051410;28;20358;-65
2022/09/23 10:13:28;;;;;;;1.10;0.80;;;23.50;50.70;;;;;;5051754;28;20034;-65
2022/09/23 10:15:58;;;;;;;1.92;0.90;;;23.50;50.60;;;;;;5052351;28;20048;-65
2022/09/23 10:18:30;;;;;;;1.33;0.80;;;23.50;50.60;;;;;;5052168;28;20500;-65
2022/09/23 10:21:13;;;;;;;1.20;0.80;;;23.50;50.50;;;;;;5052586;28;20025;-65
2022/09/23 10:23:45;;;;;;;1.08;0.80;;;23.50;50.50;;;;;;5052384;28;20491;-66
2022/09/23 10:26:12;;;;;;;1.52;0.88;;;23.50;51.00;;;;;;5052200;28;20032;-65
2022/09/23 10:28:42;;;;;;;2.03;1.00;;;23.50;50.50;;;;;;5052690;28;20072;-64
2022/09/23 10:31:12;;;;;;;1.48;1.00;;;23.50;50.50;;;;;;5049911;28;20500;-65
2022/09/23 10:33:49;;;;;;;1.70;1.05;;;23.50;50.50;;;;;;5052361;28;20035;-66
2022/09/23 10:36:16;;;;;;;1.65;0.90;;;23.50;50.50;;;;;;5034417;28;20033;-66
2022/09/23 10:38:42;;;;;;;1.27;0.90;;;23.50;50.50;;;;;;5051759;28;20029;-66
2022/09/23 10:47:33;;;;;;;1.70;0.90;;;23.50;50.60;;;;;;5051431;28;20036;-66
2022/09/23 10:50:13;;;;;;;1.98;1.10;;;23.50;50.70;;;;;;5052136;28;20400;-65
2022/09/23 10:52:51;;;;;;;2.55;0.90;;;23.50;50.70;;;;;;5051601;28;20057;-65
2022/09/23 10:55:50;;;;;;;3.78;1.10;;;23.50;50.80;;;;;;5052074;28;20029;-66
2022/09/23 10:58:27;;;;;;;2.20;1.00;;;23.50;50.70;;;;;;5051384;28;20090;-66
2022/09/23 11:01:20;;;;;;;1.42;0.90;;;23.50;50.80;;;;;;5049562;28;20041;-65
2022/09/23 11:04:17;;;;;;;1.45;0.90;;;23.50;50.90;;;;;;5049820;28;20025;-66
2022/09/23 11:06:45;;;;;;;1.15;0.90;;;23.50;50.90;;;;;;5050938;28;20075;-65
2022/09/23 11:09:16;;;;;;;1.63;1.02;;;23.50;50.80;;;;;;5051460;28;20108;-65
2022/09/23 11:12:21;;;;;;;1.40;1.00;;;23.50;50.80;;;;;;5051575;28;20087;-66
2022/09/23 11:15:16;;;;;;;1.23;0.80;;;23.50;51.00;;;;;;5045720;28;20036;-66
2022/09/23 11:17:48;;;;;;;2.65;1.20;;;23.60;51.10;;;;;;5050452;28;20021;-66
2022/09/23 11:20:16;;;;;;;2.42;1.00;;;23.60;51.00;;;;;;5050153;28;20388;-66
2022/09/23 11:22:57;;;;;;;1.63;0.90;;;23.60;51.10;;;;;;5050333;28;20079;-66
2022/09/23 11:25:38;;;;;;;2.05;0.95;;;23.60;51.10;;;;;;5049740;28;20032;-66
2022/09/23 11:28:30;;;;;;;2.53;1.00;;;23.60;51.10;;;;;;5050028;28;20024;-65
2022/09/23 11:31:13;;;;;;;1.70;1.00;;;23.60;51.10;;;;;;5049894;28;20116;-65
2022/09/23 11:34:00;;;;;;;1.50;0.90;;;23.60;51.10;;;;;;5050089;28;20033;-66
2022/09/23 11:36:43;;;;;;;1.50;0.90;;;23.60;51.10;;;;;;5048874;28;20033;-66
2022/09/23 11:39:29;;;;;;;1.88;1.00;;;23.60;51.10;;;;;;5048522;28;20356;-66
2022/09/23 11:41:56;;;;;;;1.70;1.02;;;23.60;51.10;;;;;;5050287;28;20072;-66
2022/09/23 11:44:32;;;;;;;2.63;1.23;;;23.60;51.10;;;;;;5050245;28;20021;-66
2022/09/23 11:47:09;;;;;;;2.22;1.20;;;23.60;51.20;;;;;;5050085;28;20025;-65
2022/09/23 11:49:47;;;;;;;3.03;1.27;;;23.50;51.10;;;;;;5049037;28;20036;-65
2022/09/23 11:52:21;;;;;;;1.60;1.08;;;23.50;51.20;;;;;;5049810;28;20499;-65
2022/09/23 11:55:14;;;;;;;2.15;1.08;;;23.50;51.20;;;;;;5049294;28;20451;-66
2022/09/23 11:57:58;;;;;;;2.05;1.20;;;23.50;51.20;;;;;;5048562;28;20028;-65
2022/09/23 12:00:31;;;;;;;1.73;1.00;;;23.50;51.20;;;;;;5050189;28;20021;-66
2022/09/23 12:03:32;;;;;;;3.50;1.05;;;23.50;51.30;;;;;;5049229;28;20153;-66
2022/09/23 12:06:10;;;;;;;1.92;1.20;;;23.50;51.30;;;;;;5037814;28;20459;-66
2022/09/23 12:08:36;;;;;;;2.47;1.25;;;23.50;51.30;;;;;;5050789;28;20028;-66
2022/09/23 12:11:38;;;;;;;2.80;1.20;;;23.50;51.90;;;;;;5050960;28;20504;-65
2022/09/23 12:14:26;;;;;;;2.45;1.40;;;23.50;51.40;;;;;;5048422;28;20522;-65
2022/09/23 12:16:57;;;;;;;2.50;1.20;;;23.40;51.40;;;;;;5050567;28;20090;-66
2022/09/23 12:19:41;;;;;;;1.75;1.00;;;23.40;51.40;;;;;;5049666;28;20040;-65
2022/09/23 12:22:35;;;;;;;2.17;1.20;;;23.40;51.40;;;;;;5049469;28;20048;-66
2022/09/23 12:25:16;;;;;;;2.00;1.10;;;23.40;51.50;;;;;;5049900;28;20560;-65
2022/09/23 12:27:49;;;;;;;1.80;1.20;;;23.40;51.50;;;;;;5048586;28;20044;-65
2022/09/23 12:30:25;;;;;;;2.00;1.20;;;23.40;51.50;;;;;;5049898;28;20040;-66
2022/09/23 12:32:51;;;;;;;1.88;1.10;;;23.40;51.50;;;;;;5050554;28;20031;-66
2022/09/23 12:35:40;;;;;;;2.17;1.30;;;23.40;51.50;;;;;;5024364;28;20122;-66
2022/09/23 12:38:36;;;;;;;2.08;1.10;;;23.40;51.50;;;;;;5053359;28;20029;-66
2022/09/23 12:41:23;;;;;;;1.85;1.10;;;23.30;51.50;;;;;;5044208;28;20056;-66
2022/09/23 12:43:54;;;;;;;2.28;1.10;;;23.40;51.60;;;;;;5053228;28;20028;-66
2022/09/23 12:46:24;;;;;;;1.52;0.98;;;23.30;51.60;;;;;;5054535;28;20032;-65
2022/09/23 12:48:56;;;;;;;2.05;1.08;;;23.30;51.60;;;;;;5054455;28;20021;-65
2022/09/23 12:51:24;;;;;;;1.77;1.10;;;23.30;51.60;;;;;;5054172;28;20484;-65
2022/09/23 12:54:14;;;;;;;1.83;1.10;;;23.30;51.60;;;;;;5054664;28;20486;-65
2022/09/23 12:56:39;;;;;;;1.35;0.90;;;23.30;51.70;;;;;;5053595;28;20055;-65
2022/09/23 12:59:27;;;;;;;2.20;1.20;;;23.30;51.70;;;;;;5054312;28;20021;-66
2022/09/23 13:01:54;;;;;;;2.40;1.20;;;23.20;51.70;;;;;;5053093;28;20037;-64
2022/09/23 13:07:39;;;;;;;2.28;1.25;;;23.20;51.70;;;;;;5053327;28;20063;-66
2022/09/23 13:10:14;;;;;;;1.98;1.13;;;23.20;52.30;;;;;;5053363;28;20411;-66
2022/09/23 13:12:42;;;;;;;1.85;1.10;;;23.20;51.80;;;;;;5054008;28;20033;-65
2022/09/23 13:15:32;;;;;;;1.60;1.00;;;23.20;51.80;;;;;;5053877;28;20053;-66
2022/09/23 13:18:19;;;;;;;1.67;1.00;;;23.20;51.80;;;;;;5052510;28;20110;-65
2022/09/23 13:20:47;;;;;;;2.17;1.00;;;23.20;51.80;;;;;;5053949;28;20095;-65
2022/09/23 13:23:30;;;;;;;2.75;1.20;;;23.20;51.90;;;;;;5053251;28;20021;-65
2022/09/23 13:26:07;;;;;;;2.00;0.98;;;23.20;51.90;;;;;;5052736;28;20468;-65